Time;durP1;ratioP1;P1;durP2;ratioP2;P2;SDS_P1;SDS_P2;PMS_P1;PMS_P2;Temp;Humidity;BMP_temperature;BMP_pressure;BME280_temperature;BME280_humidity;BME280_pressure;Samples;Min_cycle;Max_cycle;Signal;HPM_P1;HPM_P2
2023/02/14 00:01:44;;;;;;;7.15;1.90;;;;;;;2.69;100.00;98315.22;5058010;28;20092;-50
2023/02/14 00:04:11;;;;;;;9.50;1.67;;;;;;;2.69;100.00;98319.50;5106429;28;20048;-50
2023/02/14 00:06:38;;;;;;;3.80;1.10;;;;;;;2.69;100.00;98314.38;5091456;28;20597;-48
2023/02/14 00:09:09;;;;;;;4.72;1.60;;;;;;;2.55;100.00;98292.47;5106845;28;20039;-52
2023/02/14 00:11:35;;;;;;;2.75;1.30;;;;;;;2.72;100.00;98324.56;5102241;28;20482;-51
2023/02/14 00:16:46;;;;;;;2.13;1.20;;;;;;;2.72;100.00;98322.81;5107436;28;20213;-52
2023/02/14 00:19:18;;;;;;;3.53;1.90;;;;;;;2.74;100.00;98328.75;5090384;28;20104;-50
2023/02/14 00:21:44;;;;;;;2.85;1.33;;;;;;;2.76;100.00;98318.47;5087507;28;20131;-52
2023/02/14 00:24:21;;;;;;;4.07;1.52;;;;;;;2.77;100.00;98322.72;5105683;28;20035;-48
2023/02/14 00:26:48;;;;;;;5.10;1.48;;;;;;;2.77;100.00;98321.00;5091823;28;20085;-53
2023/02/14 00:29:17;;;;;;;7.15;1.83;;;;;;;2.56;100.00;98290.75;5086235;28;20046;-54
2023/02/14 00:31:43;;;;;;;8.57;2.15;;;;;;;2.78;100.00;98320.09;5079471;28;22033;-52
2023/02/14 00:34:10;;;;;;;4.32;2.08;;;;;;;2.66;100.00;98307.59;5105997;28;20039;-53
2023/02/14 00:36:36;;;;;;;3.33;1.70;;;;;;;2.82;100.00;98333.72;5091861;28;20426;-51
2023/02/14 00:39:07;;;;;;;4.65;2.03;;;;;;;2.70;100.00;98328.88;5107483;28;20507;-49
2023/02/14 00:41:33;;;;;;;5.68;2.20;;;;;;;2.59;100.00;98324.00;5104087;28;20062;-50
2023/02/14 00:43:59;;;;;;;3.67;1.70;;;;;;;2.73;100.00;98350.16;5078354;28;20526;-51
2023/02/14 00:46:25;;;;;;;4.15;1.63;;;;;;;2.74;100.00;98351.00;5106322;28;20040;-54
2023/02/14 00:48:52;;;;;;;4.40;1.90;;;;;;;2.73;100.00;98350.16;5102569;28;20056;-53
2023/02/14 00:51:19;;;;;;;7.28;1.77;;;;;;;2.74;100.00;98346.72;5094721;28;20035;-48
2023/02/14 00:53:46;;;;;;;6.75;1.80;;;;;;;2.75;100.00;98343.28;5078784;28;20431;-50
2023/02/14 00:56:12;;;;;;;7.13;2.53;;;;;;;2.74;100.00;98336.47;5070522;28;20514;-50
2023/02/14 00:58:40;;;;;;;4.88;1.48;;;;;;;2.75;100.00;98345.00;5090824;28;20515;-48
2023/02/14 01:01:06;;;;;;;8.02;1.65;;;;;;;2.72;100.00;98340.78;5088728;28;20467;-50
2023/02/14 01:03:34;;;;;;;5.90;2.08;;;;;;;2.78;100.00;98340.63;5098579;28;20571;-49
2023/02/14 01:06:01;;;;;;;5.07;1.80;;;;;;;2.78;100.00;98339.78;5073591;28;20036;-52
2023/02/14 01:08:29;;;;;;;3.90;1.50;;;;;;;2.78;100.00;98343.19;5069964;28;20990;-50
2023/02/14 01:10:55;;;;;;;5.78;1.85;;;;;;;2.79;100.00;98350.03;5103236;28;20047;-57
2023/02/14 01:13:22;;;;;;;4.55;1.77;;;;;;;2.83;100.00;98350.78;5060369;28;20031;-49
2023/02/14 01:15:50;;;;;;;4.35;1.83;;;;;;;2.82;100.00;98359.38;5096432;28;20028;-47
2023/02/14 01:18:17;;;;;;;5.75;1.90;;;;;;;2.78;100.00;98356.03;5105706;28;20035;-54
2023/02/14 01:20:43;;;;;;;3.78;1.80;;;;;;;2.60;100.00;98330.00;5087933;28;20430;-48
2023/02/14 01:23:09;;;;;;;8.40;2.00;;;;;;;2.77;100.00;98356.09;5088801;28;20062;-54
2023/02/14 01:25:37;;;;;;;5.95;2.13;;;;;;;2.72;100.00;98358.75;5103307;28;20044;-49
2023/02/14 01:28:03;;;;;;;3.90;1.80;;;;;;;2.73;100.00;98362.16;5095062;28;20039;-50
2023/02/14 01:30:29;;;;;;;6.88;1.92;;;;;;;2.68;100.00;98367.41;5083092;28;20044;-53
2023/02/14 01:32:55;;;;;;;10.00;2.15;;;;;;;2.65;100.00;98364.06;5103889;28;20065;-50
2023/02/14 01:35:21;;;;;;;6.05;2.30;;;;;;;2.64;100.00;98368.34;5104817;28;20040;-49
2023/02/14 01:37:47;;;;;;;2.72;1.58;;;;;;;2.63;100.00;98374.34;5106383;28;20053;-53
2023/02/14 01:40:13;;;;;;;4.97;2.33;;;;;;;2.60;100.00;98363.34;5107793;28;20062;-49
2023/02/14 01:42:42;;;;;;;7.20;2.35;;;;;;;2.23;100.00;98322.31;5091359;28;20032;-54
2023/02/14 01:45:16;;;;;;;11.38;4.00;;;;;;;2.53;100.00;98375.47;5099846;28;20043;-53
2023/02/14 01:47:44;;;;;;;3.15;1.70;;;;;;;2.55;100.00;98384.81;5087337;28;20043;-53
2023/02/14 01:50:14;;;;;;;7.43;1.77;;;;;;;2.53;100.00;98372.88;5106399;28;20047;-52
2023/02/14 01:52:46;;;;;;;4.50;1.17;;;;;;;2.50;100.00;98386.66;5075057;28;20036;-51
2023/02/14 01:55:16;;;;;;;2.17;0.90;;;;;;;2.38;100.00;98363.84;5095883;28;20624;-52
2023/02/14 01:58:06;;;;;;;5.57;2.15;;;;;;;2.42;100.00;98385.09;5107325;28;20050;-52
2023/02/14 02:03:18;;;;;;;2.67;0.68;;;;;;;2.36;100.00;98388.66;5107296;28;20043;-50
2023/02/14 02:05:47;;;;;;;2.05;0.90;;;;;;;2.31;100.00;98393.03;5107153;28;20040;-50
2023/02/14 02:08:13;;;;;;;2.30;0.85;;;;;;;2.18;100.00;98373.69;5089795;28;20137;-49
2023/02/14 02:10:39;;;;;;;1.95;0.95;;;;;;;2.26;100.00;98387.16;5090655;28;20044;-53
2023/02/14 02:13:07;;;;;;;3.40;1.10;;;;;;;2.28;100.00;98387.16;5108859;28;20065;-53
2023/02/14 02:15:41;;;;;;;2.00;1.30;;;;;;;2.22;100.00;98389.84;5111136;28;20051;-52
2023/02/14 02:18:07;;;;;;;2.25;1.10;;;;;;;2.20;100.00;98389.88;5061060;28;20053;-51
2023/02/14 02:21:07;;;;;;;4.60;1.60;;;;;;;2.25;100.00;98402.63;5112720;28;20043;-52
2023/02/14 02:23:46;;;;;;;4.22;1.60;;;;;;;2.29;100.00;98399.09;5092419;28;20044;-51
2023/02/14 02:26:30;;;;;;;5.75;1.95;;;;;;;2.34;100.00;98404.97;5082691;28;20051;-51
2023/02/14 02:29:11;;;;;;;4.05;1.95;;;;;;;2.34;100.00;98407.53;5111225;28;20092;-53
2023/02/14 02:32:22;;;;;;;10.60;3.65;;;;;;;2.35;100.00;98394.69;5112658;28;20124;-52
2023/02/14 02:35:19;;;;;;;4.25;1.90;;;;;;;2.38;100.00;98401.44;5111067;28;20092;-49
2023/02/14 02:38:10;;;;;;;7.05;2.78;;;;;;;2.39;100.00;98406.56;5089929;28;20119;-53
2023/02/14 02:41:01;;;;;;;8.05;2.78;;;;;;;2.41;100.00;98403.94;5095343;28;20126;-49
2023/02/14 02:43:40;;;;;;;9.20;3.25;;;;;;;2.38;100.00;98396.31;5098409;28;20056;-47
2023/02/14 02:53:01;;;;;;;5.20;1.70;;;;;;;2.17;100.00;98372.00;5106495;28;20052;-53
2023/02/14 02:55:01;;;;;;;4.93;2.42;;;;;;;2.28;100.00;98398.25;5104949;28;19920;-53
2023/02/14 02:57:34;;;;;;;3.53;2.00;;;;;;;2.31;100.00;98405.00;5110654;28;20043;-49
2023/02/14 03:00:03;;;;;;;5.15;2.35;;;;;;;2.31;100.00;98405.00;5109712;28;20036;-51
2023/02/14 03:05:29;;;;;;;5.05;2.17;;;;;;;2.24;100.00;98391.50;5087078;28;20301;-48
2023/02/14 03:07:55;;;;;;;4.95;1.95;;;;;;;2.28;100.00;98405.94;5074399;28;20054;-50
2023/02/14 03:10:24;;;;;;;4.68;2.05;;;;;;;2.25;100.00;98393.16;5102494;28;20498;-47
2023/02/14 03:13:34;;;;;;;5.73;2.27;;;;;;;2.31;100.00;98403.28;5092842;28;20051;-49
2023/02/14 03:16:19;;;;;;;9.98;3.38;;;;;;;2.35;100.00;98398.97;5099035;28;20138;-50
2023/02/14 03:19:06;;;;;;;2.72;1.60;;;;;;;2.37;100.00;98405.72;5103500;28;20092;-52
2023/02/14 03:22:00;;;;;;;3.90;1.90;;;;;;;2.36;100.00;98400.63;5105834;28;20056;-48
2023/02/14 03:24:32;;;;;;;3.47;1.60;;;;;;;2.35;100.00;98406.66;5097720;28;20043;-51
2023/02/14 03:27:20;;;;;;;2.63;1.50;;;;;;;2.34;100.00;98403.25;5105545;28;20071;-50
2023/02/14 03:30:02;;;;;;;6.88;2.25;;;;;;;2.36;100.00;98413.44;5105135;28;20118;-51
2023/02/14 03:32:33;;;;;;;6.13;1.80;;;;;;;2.36;100.00;98413.44;5072986;28;20130;-54
2023/02/14 03:35:04;;;;;;;3.33;1.38;;;;;;;2.33;100.00;98410.97;5091837;28;20502;-52
2023/02/14 03:37:39;;;;;;;6.55;2.05;;;;;;;2.31;100.00;98413.56;5094503;28;20043;-56
2023/02/14 03:40:06;;;;;;;5.50;1.80;;;;;;;2.28;100.00;98410.22;5096862;28;20043;-52
2023/02/14 03:42:50;;;;;;;2.85;1.40;;;;;;;2.18;100.00;98390.78;5095489;28;20507;-54
2023/02/14 03:45:23;;;;;;;7.93;2.55;;;;;;;2.31;100.00;98411.00;5076487;28;20044;-55
2023/02/14 03:47:49;;;;;;;4.13;1.33;;;;;;;2.15;100.00;98381.44;5097414;28;20051;-53
2023/02/14 03:50:18;;;;;;;3.00;1.08;;;;;;;2.33;100.00;98422.06;5107524;28;20035;-54
2023/02/14 03:52:45;;;;;;;2.92;1.55;;;;;;;2.24;100.00;98398.34;5108412;28;20042;-50
2023/02/14 03:55:15;;;;;;;4.72;1.35;;;;;;;2.40;100.00;98422.78;5088428;28;20123;-51
2023/02/14 03:58:03;;;;;;;3.85;1.65;;;;;;;2.44;100.00;98422.69;5100516;28;20028;-49
2023/02/14 04:00:29;;;;;;;4.53;1.42;;;;;;;2.45;100.00;98437.19;5109881;28;20046;-49
2023/02/14 04:03:01;;;;;;;8.52;3.03;;;;;;;2.47;100.00;98449.97;5094938;28;20040;-53
2023/02/14 04:05:27;;;;;;;5.10;2.72;;;;;;;2.46;100.00;98435.47;5088754;28;20043;-48
2023/02/14 04:07:55;;;;;;;7.10;4.28;;;;;;;2.46;100.00;98450.88;5105309;28;20047;-48
2023/02/14 04:10:22;;;;;;;6.95;4.25;;;;;;;2.10;100.00;98396.06;5109961;27;20039;-49
2023/02/14 04:12:48;;;;;;;10.25;2.85;;;;;;;2.40;100.00;98453.56;5100944;28;20078;-52
2023/02/14 04:15:15;;;;;;;6.60;2.03;;;;;;;2.00;100.00;98405.66;5106611;28;20046;-49
2023/02/14 04:20:26;;;;;;;4.82;1.45;;;;;;;2.20;100.00;98453.16;5098126;28;20031;-50
2023/02/14 04:22:52;;;;;;;7.20;2.25;;;;;;;2.11;100.00;98443.91;5083975;28;20114;-47
2023/02/14 04:25:20;;;;;;;4.38;1.27;;;;;;;2.03;100.00;98451.75;5106907;28;20590;-47
2023/02/14 04:27:46;;;;;;;2.88;1.27;;;;;;;2.00;100.00;98456.09;5106853;27;20118;-52
2023/02/14 04:30:13;;;;;;;3.78;1.20;;;;;;;1.94;100.00;98464.72;5086331;28;20138;-49
2023/02/14 04:32:40;;;;;;;2.10;1.20;;;;;;;1.91;100.00;98466.53;5080913;28;20507;-51
2023/02/14 04:35:06;;;;;;;4.22;0.93;;;;;;;1.88;100.00;98461.47;5104812;28;20117;-51
2023/02/14 04:37:32;;;;;;;3.53;1.40;;;;;;;1.99;100.00;98474.94;5095925;28;20047;-52
2023/02/14 04:39:58;;;;;;;7.97;1.50;;;;;;;2.04;100.00;98481.63;5091768;28;20057;-56
2023/02/14 04:42:24;;;;;;;5.65;1.60;;;;;;;2.13;100.00;98478.06;5089797;28;20039;-50
2023/02/14 04:44:50;;;;;;;7.05;1.95;;;;;;;2.02;100.00;98460.31;5097515;28;20147;-49
2023/02/14 04:47:16;;;;;;;3.30;1.25;;;;;;;2.24;100.00;98486.38;5106067;28;20046;-52
2023/02/14 04:49:42;;;;;;;3.33;1.13;;;;;;;2.27;100.00;98494.00;5087467;28;20066;-52
2023/02/14 04:52:08;;;;;;;8.43;1.85;;;;;;;2.30;100.00;98487.97;5098546;28;20039;-49
2023/02/14 04:54:34;;;;;;;7.20;1.65;;;;;;;2.31;100.00;98493.03;5080815;28;20039;-53
2023/02/14 04:57:00;;;;;;;8.32;1.70;;;;;;;2.32;100.00;98505.00;5097704;28;20537;-47
2023/02/14 04:59:26;;;;;;;4.35;1.25;;;;;;;2.32;100.00;98496.47;5098250;28;20040;-48
2023/02/14 05:01:52;;;;;;;5.30;2.10;;;;;;;2.33;100.00;98506.69;5099068;28;20834;-53
2023/02/14 05:04:18;;;;;;;5.85;1.77;;;;;;;2.19;100.00;98479.66;5091148;28;20126;-50
2023/02/14 05:06:44;;;;;;;3.70;1.55;;;;;;;2.38;100.00;98514.28;5107604;28;20043;-49
2023/02/14 05:09:10;;;;;;;5.80;1.30;;;;;;;2.38;100.00;98514.28;5107725;28;20039;-47
2023/02/14 05:11:36;;;;;;;10.27;1.75;;;;;;;2.38;100.00;98515.13;5108788;28;20057;-48
2023/02/14 05:14:02;;;;;;;6.88;1.50;;;;;;;2.40;100.00;98520.25;5107680;28;20133;-51
2023/02/14 05:16:28;;;;;;;3.72;1.95;;;;;;;2.37;100.00;98521.13;5092313;27;20392;-54
2023/02/14 05:18:54;;;;;;;2.67;1.10;;;;;;;2.40;100.00;98528.78;5107909;28;20050;-55
2023/02/14 05:21:20;;;;;;;8.88;2.42;;;;;;;2.41;100.00;98530.44;5107763;28;20038;-53
2023/02/14 05:23:45;;;;;;;10.65;2.17;;;;;;;2.30;100.00;98513.63;5104789;28;20035;-52
2023/02/14 05:26:11;;;;;;;6.15;2.00;;;;;;;2.38;100.00;98522.84;5108660;28;20043;-49
2023/02/14 05:28:39;;;;;;;3.75;1.40;;;;;;;2.43;100.00;98533.00;5108413;28;20039;-52
2023/02/14 05:31:06;;;;;;;4.93;1.10;;;;;;;2.48;100.00;98541.44;5108784;28;20031;-52
2023/02/14 05:33:32;;;;;;;2.28;0.95;;;;;;;2.47;100.00;98535.47;5106712;28;20636;-51
2023/02/14 05:36:02;;;;;;;7.15;1.20;;;;;;;2.43;100.00;98538.97;5107640;28;20047;-50
2023/02/14 05:38:28;;;;;;;;;;;;;;;2.54;100.00;98542.16;5109030;28;20124;-47
2023/02/14 05:40:54;;;;;;;3.60;1.30;;;;;;;2.54;100.00;98544.72;5109025;28;19928;-50
2023/02/14 05:43:20;;;;;;;7.75;2.15;;;;;;;2.58;100.00;98549.78;5108522;28;20048;-53
2023/02/14 05:45:47;;;;;;;10.20;2.78;;;;;;;2.59;100.00;98547.19;5107729;28;20044;-54
2023/02/14 05:48:13;;;;;;;5.65;1.30;;;;;;;2.60;100.00;98545.47;5109885;28;20571;-50
2023/02/14 05:50:39;;;;;;;5.70;1.60;;;;;;;2.70;100.00;98554.66;5114798;27;20062;-51
2023/02/14 05:53:05;;;;;;;5.60;1.50;;;;;;;2.76;100.00;98549.41;5113441;28;20139;-50
2023/02/14 05:55:31;;;;;;;10.50;3.47;;;;;;;2.81;100.00;98545.88;5115588;27;20055;-51
2023/02/14 05:57:56;;;;;;;4.07;1.30;;;;;;;2.80;100.00;98546.75;5113946;28;20463;-50
2023/02/14 06:00:23;;;;;;;4.13;2.05;;;;;;;2.86;100.00;98548.34;5115605;27;20047;-52
2023/02/14 06:02:50;;;;;;;5.45;1.90;;;;;;;2.90;100.00;98548.22;5113698;28;20515;-52
2023/02/14 06:05:17;;;;;;;2.45;1.00;;;;;;;2.93;100.00;98549.91;5095378;28;20139;-55
2023/02/14 06:07:49;;;;;;;4.03;1.35;;;;;;;2.93;100.00;98540.44;5094719;28;20567;-50
2023/02/14 06:10:20;;;;;;;2.38;1.20;;;;;;;2.99;100.00;98547.19;5114177;28;20035;-54
2023/02/14 06:12:51;;;;;;;5.55;1.55;;;;;;;3.01;100.00;98549.72;5115999;27;20066;-53
2023/02/14 06:15:18;;;;;;;7.35;3.08;;;;;;;3.00;100.00;98546.31;5080596;28;20067;-53
2023/02/14 06:17:44;;;;;;;5.75;1.48;;;;;;;2.87;100.00;98530.34;5096654;28;20035;-53
2023/02/14 06:20:10;;;;;;;5.13;1.73;;;;;;;3.04;100.00;98554.78;5092971;28;20043;-53
2023/02/14 06:22:37;;;;;;;5.40;1.45;;;;;;;2.89;100.00;98527.72;5101735;28;20134;-50
2023/02/14 06:25:04;;;;;;;3.72;1.60;;;;;;;3.06;100.00;98563.28;5115231;27;20035;-54
2023/02/14 06:27:31;;;;;;;8.35;1.60;;;;;;;3.12;100.00;98555.47;5113224;28;20036;-53
2023/02/14 06:29:57;;;;;;;11.65;1.58;;;;;;;3.10;100.00;98563.19;5092464;28;20545;-54
2023/02/14 06:32:23;;;;;;;2.53;1.00;;;;;;;2.88;100.00;98524.31;5093380;28;20126;-52
2023/02/14 06:34:49;;;;;;;6.45;2.65;;;;;;;3.11;100.00;98548.63;5094935;28;20516;-52
2023/02/14 06:37:15;;;;;;;5.68;1.42;;;;;;;3.14;100.00;98569.13;5097807;28;20043;-50
2023/02/14 06:39:40;;;;;;;6.43;1.45;;;;;;;3.16;100.00;98565.63;5113443;27;20081;-47
2023/02/14 06:42:06;;;;;;;6.47;1.50;;;;;;;3.19;100.00;98564.72;5104869;28;20040;-53
2023/02/14 06:44:32;;;;;;;1.90;1.30;;;;;;;3.20;100.00;98585.22;5113667;28;20043;-55
2023/02/14 06:46:58;;;;;;;5.55;1.63;;;;;;;3.16;100.00;98578.47;5114582;27;20062;-55
2023/02/14 06:49:24;;;;;;;3.75;1.00;;;;;;;3.14;100.00;98579.41;5096718;28;20084;-53
2023/02/14 06:51:50;;;;;;;4.80;1.67;;;;;;;3.20;100.00;98589.50;5113736;28;20043;-48
2023/02/14 06:54:16;;;;;;;4.85;2.00;;;;;;;3.23;100.00;98589.44;5114689;28;20704;-48
2023/02/14 06:56:42;;;;;;;5.32;1.08;;;;;;;3.31;100.00;98585.81;5111924;28;20042;-52
2023/02/14 06:59:08;;;;;;;5.78;2.17;;;;;;;3.15;100.00;98558.78;5108334;28;20036;-53
2023/02/14 07:01:33;;;;;;;8.35;1.30;;;;;;;3.30;100.00;98589.25;5092370;28;20050;-51
2023/02/14 07:03:59;;;;;;;2.15;1.05;;;;;;;3.37;100.00;98598.53;5088313;28;20043;-54
2023/02/14 07:06:25;;;;;;;4.65;1.30;;;;;;;3.41;100.00;98589.88;5109356;28;20039;-54
2023/02/14 07:08:51;;;;;;;5.60;1.60;;;;;;;3.47;100.00;98593.16;5110129;28;20403;-55
2023/02/14 07:11:17;;;;;;;2.60;1.10;;;;;;;3.50;100.00;98599.09;5110048;28;20036;-54
2023/02/14 07:13:43;;;;;;;2.55;1.20;;;;;;;3.51;100.00;98605.09;5109339;28;20043;-52
2023/02/14 07:16:09;;;;;;;5.05;1.50;;;;;;;3.58;100.00;98599.75;5097679;28;20040;-55
2023/02/14 07:18:35;;;;;;;5.95;1.20;;;;;;;3.51;100.00;98580.22;5083448;28;20039;-54
2023/02/14 07:21:01;;;;;;;5.50;2.05;;;;;;;3.75;100.00;98609.63;5099794;28;20494;-50
2023/02/14 07:23:27;;;;;;;5.22;1.00;;;;;;;3.62;100.00;98575.66;5069145;28;20059;-53
2023/02/14 07:25:54;;;;;;;4.35;1.98;;;;;;;3.76;100.00;98611.31;5089653;28;20418;-52
2023/02/14 07:28:20;;;;;;;5.38;1.30;;;;;;;3.75;100.00;98613.06;5096675;28;20048;-52
2023/02/14 07:30:46;;;;;;;1.83;1.10;;;;;;;3.80;100.00;98618.91;5109107;28;20051;-49
2023/02/14 07:33:12;;;;;;;3.28;1.70;;;;;;;3.83;100.00;98616.25;5110858;28;20043;-52
2023/02/14 07:35:38;;;;;;;2.47;1.35;;;;;;;3.69;100.00;98609.78;5111369;28;20052;-52
2023/02/14 07:38:03;;;;;;;2.63;1.17;;;;;;;3.74;100.00;98602.78;5110815;28;20511;-52
2023/02/14 07:40:30;;;;;;;2.78;1.15;;;;;;;3.90;100.00;98636.69;5110893;28;20482;-53
2023/02/14 07:42:57;;;;;;;7.68;1.65;;;;;;;3.91;100.00;98636.66;5093069;28;20074;-54
2023/02/14 07:45:24;;;;;;;8.93;3.17;;;;;;;3.94;100.00;98636.56;5111126;28;20467;-52
2023/02/14 07:47:52;;;;;;;2.75;1.25;;;;;;;3.95;100.00;98638.25;5091397;28;20379;-56
2023/02/14 07:50:19;;;;;;;2.25;1.05;;;;;;;3.97;100.00;98636.50;5108948;28;20745;-52
2023/02/14 07:52:46;;;;;;;3.38;1.30;;;;;;;3.99;100.00;98636.47;5108018;27;20084;-50
2023/02/14 07:55:12;;;;;;;5.40;1.45;;;;;;;4.01;100.00;98630.41;5107753;28;20039;-51
2023/02/14 07:57:38;;;;;;;2.58;1.05;;;;;;;4.08;100.00;98643.97;5099545;28;20051;-47
2023/02/14 08:00:05;;;;;;;2.40;1.40;;;;;;;4.17;100.00;98639.44;5086221;28;20039;-53
2023/02/14 08:02:38;;;;;;;3.45;1.23;;;;;;;4.26;100.00;98643.47;5110284;28;20046;-48
2023/02/14 08:05:04;;;;;;;4.10;0.80;;;;;;;4.30;100.00;98639.09;5104202;28;20040;-48
2023/02/14 08:07:30;;;;;;;2.00;0.93;;;;;;;4.33;100.00;98646.75;5110619;28;20042;-48
2023/02/14 08:09:56;;;;;;;5.93;1.30;;;;;;;4.22;100.00;98649.59;5079816;28;20032;-47
2023/02/14 08:17:50;;;;;;;3.90;1.25;;;;;;;3.81;100.00;98642.91;5102371;28;20044;-54
2023/02/14 08:20:16;;;;;;;4.03;0.90;;;;;;;3.84;100.00;98665.97;5099778;28;20043;-50
2023/02/14 08:22:42;;;;;;;3.20;1.52;;;;;;;3.82;100.00;98665.97;5108097;28;20729;-50
2023/02/14 08:25:08;;;;;;;3.50;1.08;;;;;;;3.90;100.00;98672.69;5089167;28;20036;-47
2023/02/14 08:27:34;;;;;;;4.32;1.40;;;;;;;3.95;100.00;98668.28;5081726;28;20507;-52
2023/02/14 08:29:59;;;;;;;14.00;2.85;;;;;;;3.93;100.00;98673.44;5102818;28;20039;-51
2023/02/14 08:32:25;;;;;;;1.83;1.35;;;;;;;3.95;100.00;98678.56;5106877;28;20173;-51
2023/02/14 08:34:51;;;;;;;4.85;1.20;;;;;;;3.96;100.00;98680.25;5101228;28;20043;-51
2023/02/14 08:37:17;;;;;;;3.08;1.00;;;;;;;3.91;100.00;98677.78;5104295;28;20044;-56
2023/02/14 08:39:43;;;;;;;4.13;0.90;;;;;;;3.93;100.00;98695.72;5107592;28;20070;-49
2023/02/14 08:42:09;;;;;;;5.13;1.17;;;;;;;3.91;100.00;98698.38;5085313;28;20036;-49
2023/02/14 08:44:35;;;;;;;2.58;0.98;;;;;;;3.74;100.00;98670.47;5096858;28;20644;-51
2023/02/14 08:47:01;;;;;;;3.80;1.00;;;;;;;3.94;100.00;98712.84;5091443;28;20036;-50
2023/02/14 08:49:27;;;;;;;4.55;1.30;;;;;;;4.00;100.00;98710.16;5106050;28;20065;-50
2023/02/14 08:51:54;;;;;;;5.35;1.60;;;;;;;4.07;100.00;98709.13;5089053;28;20048;-51
2023/02/14 08:54:19;;;;;;;3.92;1.55;;;;;;;4.22;100.00;98717.31;5089217;28;20050;-50
2023/02/14 08:56:45;;;;;;;4.68;1.77;;;;;;;4.37;100.00;98720.41;5106959;28;20122;-50
2023/02/14 08:59:11;;;;;;;9.90;2.92;;;;;;;4.41;100.00;98704.84;5109635;28;20130;-49
2023/02/14 09:01:37;;;;;;;8.07;1.77;;;;;;;4.65;100.00;98718.81;5081859;28;20543;-57
2023/02/14 09:04:03;;;;;;;4.00;1.60;;;;;;;4.67;100.00;98732.47;5103092;28;20100;-49
2023/02/14 09:06:29;;;;;;;7.07;1.58;;;;;;;4.61;100.00;98737.78;5097041;28;20427;-52
2023/02/14 09:08:55;;;;;;;3.13;1.10;;;;;;;4.61;100.00;98733.47;5098655;28;20458;-53
2023/02/14 09:11:23;;;;;;;6.63;1.48;;;;;;;4.82;100.00;98731.22;5101332;28;20123;-45
2023/02/14 09:13:52;;;;;;;2.95;1.20;;;;;;;4.76;100.00;98747.72;5098025;28;20050;-48
2023/02/14 09:16:20;;;;;;;3.53;1.30;;;;;;;4.69;100.00;98752.16;5070534;28;20533;-52
2023/02/14 09:18:46;;;;;;;5.07;1.77;;;;;;;4.72;100.00;98751.22;5093256;28;20058;-47
2023/02/14 09:21:16;;;;;;;2.88;1.25;;;;;;;4.84;100.00;98740.63;5087621;28;20036;-48
2023/02/14 09:23:42;;;;;;;4.53;1.40;;;;;;;4.86;100.00;98738.00;5091760;28;20097;-51
2023/02/14 09:26:10;;;;;;;1.65;1.00;;;;;;;5.01;100.00;98738.44;5108667;28;20035;-46
2023/02/14 09:28:36;;;;;;;3.78;1.23;;;;;;;5.03;98.44;98746.94;5090763;28;20042;-47
2023/02/14 09:31:14;;;;;;;3.97;0.80;;;;;;;4.98;97.07;98758.25;5071679;28;20058;-46
2023/02/14 09:39:10;;;;;;;4.63;1.48;;;;;;;4.98;95.98;98766.84;5095337;28;20035;-51
2023/02/14 09:41:56;;;;;;;5.78;1.52;;;;;;;5.00;95.41;98767.66;5109156;28;20047;-48
2023/02/14 09:44:28;;;;;;;2.88;1.02;;;;;;;4.86;95.27;98777.47;5083938;28;20058;-47
2023/02/14 09:46:56;;;;;;;6.20;1.30;;;;;;;4.63;95.40;98759.19;5083896;28;20104;-52
2023/02/14 09:49:32;;;;;;;4.68;1.33;;;;;;;4.69;94.57;98780.47;5107716;28;20429;-50
2023/02/14 09:51:58;;;;;;;1.90;1.10;;;;;;;4.65;94.59;98780.59;5095620;28;20048;-53
2023/02/14 09:54:27;;;;;;;5.68;1.20;;;;;;;4.64;93.92;98778.91;5087865;28;20065;-50
2023/02/14 09:57:06;;;;;;;2.40;1.20;;;;;;;4.61;93.55;98802.97;5091262;28;20510;-51
2023/02/14 09:59:50;;;;;;;5.18;1.55;;;;;;;4.54;93.35;98804.03;5088608;28;20281;-47
2023/02/14 10:02:25;;;;;;;4.22;1.17;;;;;;;4.51;93.20;98809.22;5093930;28;20096;-55
2023/02/14 10:05:00;;;;;;;2.85;1.40;;;;;;;4.45;92.71;98808.56;5092614;28;20113;-46
2023/02/14 10:07:39;;;;;;;3.10;1.45;;;;;;;4.40;92.10;98818.09;5086483;28;20151;-46
2023/02/14 10:10:35;;;;;;;4.17;1.70;;;;;;;4.33;91.43;98807.13;5096651;28;20039;-49
2023/02/14 10:13:04;;;;;;;2.25;0.98;;;;;;;4.34;90.29;98821.69;5075515;28;20823;-53
2023/02/14 10:15:33;;;;;;;2.17;1.13;;;;;;;4.34;89.17;98831.13;5095380;28;20135;-50
2023/02/14 10:18:22;;;;;;;;;;;;;;;4.33;89.23;98832.84;5092350;28;20089;-51
2023/02/14 10:20:57;;;;;;;2.88;1.13;;;;;;;4.42;89.34;98844.63;5082321;28;19920;-51
2023/02/14 10:23:50;;;;;;;2.60;1.17;;;;;;;4.47;88.00;98843.66;5093548;28;20075;-48
2023/02/14 10:26:26;;;;;;;1.70;1.15;;;;;;;4.57;87.63;98850.28;5084839;28;20349;-54
2023/02/14 10:28:53;;;;;;;2.00;1.30;;;;;;;4.76;86.97;98857.56;5091176;28;20046;-53
2023/02/14 10:31:54;;;;;;;3.33;1.25;;;;;;;4.94;85.22;98863.09;5091744;28;20063;-50
2023/02/14 10:34:32;;;;;;;5.55;1.50;;;;;;;5.18;84.27;98858.22;5092734;28;20043;-54
2023/02/14 10:37:23;;;;;;;4.10;1.50;;;;;;;5.29;82.85;98861.34;5092935;28;20039;-53
2023/02/14 10:40:21;;;;;;;3.90;1.58;;;;;;;5.33;82.28;98856.09;5081332;28;20542;-51
2023/02/14 10:43:03;;;;;;;3.27;1.20;;;;;;;5.26;81.12;98864.88;5076798;28;20063;-52
2023/02/14 10:45:46;;;;;;;7.28;2.38;;;;;;;5.30;80.28;98870.78;5087753;28;20074;-50
2023/02/14 10:48:18;;;;;;;5.97;1.42;;;;;;;5.26;79.50;98867.44;5091114;28;20040;-52
2023/02/14 10:50:43;;;;;;;5.15;1.58;;;;;;;5.27;79.36;98869.13;5105660;28;20039;-50
2023/02/14 10:53:43;;;;;;;2.22;1.10;;;;;;;5.17;78.16;98874.56;5098659;28;20040;-50
2023/02/14 10:56:19;;;;;;;9.25;1.70;;;;;;;4.88;77.82;98842.66;5095646;28;20044;-48
2023/02/14 10:58:46;;;;;;;2.10;1.00;;;;;;;5.09;77.27;98880.75;5102951;28;20138;-53
2023/02/14 11:01:16;;;;;;;2.53;1.23;;;;;;;5.17;76.44;98888.31;5092537;28;20044;-52
2023/02/14 11:03:52;;;;;;;1.83;1.00;;;;;;;5.24;75.64;98884.66;5107643;28;20059;-53
2023/02/14 11:06:19;;;;;;;2.65;1.10;;;;;;;5.21;75.32;98889.06;5099426;28;20039;-49
2023/02/14 11:08:44;;;;;;;4.70;1.52;;;;;;;5.13;74.08;98890.09;5101041;28;20064;-50
2023/02/14 11:11:50;;;;;;;2.35;1.20;;;;;;;5.06;73.41;98880.00;5106385;28;20467;-48
2023/02/14 11:14:25;;;;;;;4.63;1.20;;;;;;;5.05;73.07;98888.59;5014014;28;20042;-52
2023/02/14 11:16:52;;;;;;;4.60;2.08;;;;;;;5.00;72.92;98895.59;5096446;28;20047;-52
2023/02/14 11:19:26;;;;;;;2.38;1.40;;;;;;;4.98;72.10;98907.66;5104019;28;20056;-47
2023/02/14 11:21:55;;;;;;;3.88;1.42;;;;;;;4.97;71.76;98905.97;5098768;28;20131;-54
2023/02/14 11:24:38;;;;;;;4.22;1.70;;;;;;;4.96;71.32;98914.59;5078965;28;20039;-50
2023/02/14 11:27:14;;;;;;;2.78;1.10;;;;;;;4.99;70.81;98910.19;5101611;28;20062;-50
2023/02/14 11:29:40;;;;;;;2.22;1.20;;;;;;;5.31;70.47;98906.81;5099586;28;20146;-52
2023/02/14 11:32:08;;;;;;;1.83;1.08;;;;;;;5.90;68.81;98904.41;5098670;28;20127;-50
2023/02/14 11:34:56;;;;;;;2.05;1.13;;;;;;;6.89;67.58;98914.34;5100216;28;20059;-50
2023/02/14 11:37:22;;;;;;;2.60;1.40;;;;;;;7.88;64.51;98910.09;5086493;28;20055;-50
2023/02/14 11:39:49;;;;;;;3.40;0.98;;;;;;;9.26;61.17;98912.50;5105244;28;20105;-51
2023/02/14 11:42:41;;;;;;;2.38;1.10;;;;;;;10.10;58.50;98919.28;5102191;28;20084;-50
2023/02/14 11:45:34;;;;;;;3.17;1.20;;;;;;;11.11;56.51;98921.47;5105620;28;20518;-52
2023/02/14 11:48:22;;;;;;;5.97;1.45;;;;;;;12.17;54.47;98921.28;5099454;28;20088;-49
2023/02/14 11:51:12;;;;;;;2.50;1.35;;;;;;;12.20;53.80;98928.06;5093522;28;20044;-49
2023/02/14 11:53:47;;;;;;;1.92;0.90;;;;;;;11.99;53.55;98919.63;5108073;28;20048;-50
2023/02/14 11:56:17;;;;;;;4.43;1.40;;;;;;;11.50;53.38;98933.44;5101693;28;20074;-52
2023/02/14 11:59:02;;;;;;;2.63;0.98;;;;;;;11.29;52.68;98930.16;5084784;28;20565;-49
2023/02/14 12:01:33;;;;;;;4.38;2.17;;;;;;;10.25;52.30;98933.38;5099865;28;20040;-53
2023/02/14 12:04:05;;;;;;;2.72;1.20;;;;;;;9.45;53.31;98924.72;5105408;28;20039;-50
2023/02/14 12:06:33;;;;;;;2.75;1.20;;;;;;;9.02;53.61;98938.59;5099196;28;20046;-51
2023/02/14 12:09:11;;;;;;;3.70;1.75;;;;;;;8.43;54.00;98940.00;5087298;28;20059;-49
2023/02/14 12:11:38;;;;;;;4.35;1.38;;;;;;;8.08;54.59;98937.81;5101447;28;20151;-52
2023/02/14 12:14:04;;;;;;;3.13;1.30;;;;;;;7.91;54.61;98953.97;5102431;28;21059;-51
2023/02/14 12:16:40;;;;;;;5.20;1.17;;;;;;;7.74;54.81;98951.13;5096690;28;20035;-53
2023/02/14 12:19:13;;;;;;;2.63;1.38;;;;;;;7.45;55.42;98961.59;5100293;28;20042;-52